Terminal Aerodrome Forecast
Issued by NWS

Home | Current Version | Previous Version | Text Only | Print | Product List | Glossary On
Versions: 1 2 3 4 5 6 7 8 9 10 11 12 13 14
229
FTUS42 KGSP 221139
TAFAND
TAF
KAND 221139Z 2212/2312 07007KT 3SM -SHRA BR OVC015
     FM221300 07007KT 3SM -DZ BR OVC010
     FM221700 08007KT P6SM BKN020
     FM230100 06004KT 4SM BR OVC020
     FM230300 06004KT 4SM BR OVC008
     FM230500 05004KT 1SM BR OVC003=

USA.gov is the U.S. government's official web portal to all federal, state and local government web resources and services.